Registro, Brazil
Current Conditions -  °F | °C
As of 9:00 AM on Saturday 25 Oct 2014 (Local Time) from SBSP Reporting Station
Haze Haze  
Wind Chill: 64°   Ceiling: 300
Heat Index: 64°   Visibility: 1.2mi
Dew Point: 59°   Wind: 6mph
Humidity: 83%   Direction: 210°SSW
Pressure: 30.09"   Gusts: NA
Location:  24.49°S, 47.84°W
Report Text: SBSP 251100Z 21005KT 2000 BR SCT002 OVC003 18/15 Q1019
Loading
Personal Weather Stations






























Interactive Weather Map
Tropical Storm Tracking
New forecast layout! Learn more

10-Day Weather Forecast

Advertisements
Track Severe Weather on mobile